PHDIS EHLE-EHRD

Flight info

Callsign PHDIS
Flight time 0h 26m
Altitude 1000
Route DCT
Aircraft H160/M-SDFGIRWZ/L

Departure

Time 2026-04-26 16:53
Airport Lelystad Airport (EHLE)

Arrival

Time 2026-04-26 17:20
Airport Rotterdam The Hague Airport (EHRD)
Time Latitude Longitude Altitude Speed Heading
2026-04-26 16:37 52.45111 5.51766 -8 ft 0 kts 249°
2026-04-26 16:48 52.45110 5.51765 -8 ft 1 kts 239°
2026-04-26 16:48 52.45109 5.51761 -8 ft 1 kts 235°
2026-04-26 16:48 52.45107 5.51757 -8 ft 1 kts 233°
2026-04-26 16:48 52.45106 5.51743 -8 ft 6 kts 289°
2026-04-26 16:49 52.45127 5.51704 -8 ft 11 kts 319°
2026-04-26 16:49 52.45177 5.51637 -8 ft 11 kts 326°
2026-04-26 16:49 52.45215 5.51637 -8 ft 9 kts
2026-04-26 16:49 52.45248 5.51607 -8 ft 3 kts 320°
2026-04-26 16:50 52.45252 5.51601 -8 ft 0 kts 319°
2026-04-26 16:51 52.45254 5.51598 -8 ft 3 kts 319°
2026-04-26 16:51 52.45281 5.51558 -1 ft 17 kts 321°
2026-04-26 16:51 52.45455 5.51759 30 ft 65 kts 41°
2026-04-26 16:52 52.45784 5.52284 34 ft 99 kts 43°
2026-04-26 16:52 52.45961 5.52688 89 ft 15 kts 16°
2026-04-26 16:52 52.46051 5.52792 520 ft 40 kts 42°
2026-04-26 16:52 52.46171 5.53099 1071 ft 27 kts 53°
2026-04-26 16:53 52.46045 5.53326 1116 ft 38 kts 69°
2026-04-26 16:53 52.45909 5.54150 1115 ft 102 kts 105°
2026-04-26 16:53 52.45538 5.55056 1138 ft 104 kts 134°
2026-04-26 16:53 52.44901 5.55530 1111 ft 103 kts 188°
2026-04-26 16:54 52.44338 5.54999 1117 ft 92 kts 234°
2026-04-26 16:54 52.43927 5.54257 1118 ft 88 kts 241°
2026-04-26 16:54 52.43610 5.53540 1085 ft 87 kts 249°
2026-04-26 16:54 52.43321 5.52781 1009 ft 109 kts 246°
2026-04-26 16:55 52.42816 5.51616 1011 ft 132 kts 238°
2026-04-26 16:55 52.42254 5.50499 1030 ft 124 kts 237°
2026-04-26 16:55 52.41661 5.49448 1005 ft 128 kts 234°
2026-04-26 16:55 52.41000 5.48333 969 ft 144 kts 234°
2026-04-26 16:56 52.39960 5.45975 1007 ft 139 kts 244°
2026-04-26 16:56 52.39496 5.44594 1016 ft 139 kts 249°
2026-04-26 16:56 52.39111 5.43163 1014 ft 137 kts 254°
2026-04-26 16:57 52.38817 5.41742 1006 ft 135 kts 260°
2026-04-26 16:57 52.38610 5.40238 1005 ft 135 kts 264°
2026-04-26 16:57 52.38091 5.37367 1007 ft 136 kts 255°
2026-04-26 16:58 52.37701 5.35941 1015 ft 138 kts 251°
2026-04-26 16:58 52.37410 5.35013 1011 ft 138 kts 249°
2026-04-26 16:58 52.36208 5.31785 1018 ft 146 kts 243°
2026-04-26 16:59 52.35659 5.30440 1003 ft 150 kts 241°
2026-04-26 16:59 52.34903 5.28665 1004 ft 149 kts 240°
2026-04-26 17:00 52.33701 5.25919 998 ft 148 kts 239°
2026-04-26 17:00 52.32479 5.23226 996 ft 149 kts 239°
2026-04-26 17:00 52.31855 5.21858 997 ft 149 kts 239°
2026-04-26 17:01 52.31224 5.20480 941 ft 153 kts 238°
2026-04-26 17:01 52.30629 5.19183 1011 ft 147 kts 239°
2026-04-26 17:01 52.30147 5.18128 997 ft 148 kts 238°
2026-04-26 17:01 52.29525 5.16781 993 ft 149 kts 238°
2026-04-26 17:02 52.28900 5.15423 998 ft 148 kts 238°
2026-04-26 17:02 52.28345 5.14202 998 ft 145 kts 239°
2026-04-26 17:02 52.27771 5.12944 990 ft 150 kts 238°
2026-04-26 17:02 52.27197 5.11690 1002 ft 148 kts 239°
2026-04-26 17:03 52.26613 5.10408 995 ft 149 kts 239°
2026-04-26 17:03 52.26019 5.09107 997 ft 150 kts 238°
2026-04-26 17:03 52.25440 5.07843 996 ft 151 kts 239°
2026-04-26 17:03 52.25308 5.07556 1000 ft 150 kts 239°
2026-04-26 17:04 52.25176 5.07266 1000 ft 149 kts 239°
2026-04-26 17:04 52.24793 5.06431 992 ft 151 kts 237°
2026-04-26 17:04 52.24200 5.05147 1002 ft 150 kts 238°
2026-04-26 17:04 52.23605 5.03851 996 ft 149 kts 238°
2026-04-26 17:05 52.22984 5.02500 1002 ft 149 kts 239°
2026-04-26 17:05 52.22373 5.01163 1005 ft 147 kts 239°
2026-04-26 17:05 52.21752 4.99811 1003 ft 149 kts 239°
2026-04-26 17:05 52.21144 4.98487 993 ft 149 kts 238°
2026-04-26 17:06 52.20525 4.97140 1002 ft 148 kts 238°
2026-04-26 17:06 52.19905 4.95790 998 ft 149 kts 238°
2026-04-26 17:06 52.19284 4.94434 1005 ft 149 kts 239°
2026-04-26 17:06 52.18662 4.93078 1001 ft 150 kts 238°
2026-04-26 17:07 52.18047 4.91732 1005 ft 148 kts 239°
2026-04-26 17:07 52.17427 4.90379 991 ft 151 kts 238°
2026-04-26 17:07 52.16795 4.89019 1027 ft 149 kts 239°
2026-04-26 17:07 52.16205 4.87741 889 ft 159 kts 238°
2026-04-26 17:08 52.15637 4.86521 975 ft 153 kts 238°
2026-04-26 17:08 52.15018 4.85178 985 ft 151 kts 237°
2026-04-26 17:08 52.14387 4.83819 998 ft 149 kts 238°
2026-04-26 17:08 52.13739 4.82420 622 ft 170 kts 237°
2026-04-26 17:09 52.13100 4.81069 884 ft 120 kts 240°
2026-04-26 17:09 52.12864 4.80551 912 ft 101 kts 241°
2026-04-26 17:09 52.12693 4.80171 787 ft 124 kts 238°
2026-04-26 17:09 52.12174 4.79080 970 ft 72 kts 236°
2026-04-26 17:10 52.11807 4.78309 966 ft 98 kts 239°
2026-04-26 17:10 52.11385 4.77399 992 ft 104 kts 240°
2026-04-26 17:10 52.10951 4.76454 996 ft 105 kts 239°
2026-04-26 17:10 52.10510 4.75500 996 ft 104 kts 239°
2026-04-26 17:11 52.10129 4.74681 992 ft 104 kts 239°
2026-04-26 17:11 52.09908 4.74208 995 ft 104 kts 240°
2026-04-26 17:11 52.09510 4.73348 995 ft 109 kts 240°
2026-04-26 17:11 52.09134 4.72537 996 ft 106 kts 240°
2026-04-26 17:12 52.08240 4.70614 985 ft 103 kts 240°
2026-04-26 17:12 52.07807 4.69683 978 ft 103 kts 239°
2026-04-26 17:13 52.06691 4.67706 790 ft 107 kts 227°
2026-04-26 17:13 52.06249 4.66932 887 ft 93 kts 239°
2026-04-26 17:13 52.04922 4.65039 695 ft 159 kts 196°
2026-04-26 17:14 52.03857 4.65001 894 ft 143 kts 187°
2026-04-26 17:14 52.02798 4.64472 849 ft 152 kts 212°
2026-04-26 17:15 52.01427 4.62193 955 ft 147 kts 239°
2026-04-26 17:15 52.00827 4.60876 964 ft 148 kts 237°
2026-04-26 17:15 52.00177 4.59570 980 ft 153 kts 233°
2026-04-26 17:16 51.99681 4.58676 991 ft 149 kts 231°
2026-04-26 17:16 51.99329 4.58091 974 ft 153 kts 229°
2026-04-26 17:16 51.99244 4.57947 979 ft 152 kts 230°
2026-04-26 17:16 51.99143 4.57761 984 ft 151 kts 233°
2026-04-26 17:17 51.98600 4.56518 981 ft 150 kts 240°
2026-04-26 17:17 51.98177 4.55378 1004 ft 148 kts 245°
2026-04-26 17:17 51.97752 4.54092 974 ft 151 kts 245°
2026-04-26 17:17 51.97238 4.52617 979 ft 151 kts 244°
2026-04-26 17:18 51.96717 4.51135 987 ft 150 kts 247°
2026-04-26 17:18 51.96269 4.49636 979 ft 149 kts 250°
2026-04-26 17:18 51.95875 4.48077 987 ft 148 kts 253°
2026-04-26 17:18 51.95587 4.46498 976 ft 146 kts 265°
2026-04-26 17:19 51.95848 4.43413 736 ft 135 kts 288°
2026-04-26 17:19 51.95780 4.41906 561 ft 131 kts 252°
2026-04-26 17:19 51.95110 4.41301 652 ft 118 kts 158°
2026-04-26 17:20 51.94941 4.42108 539 ft 43 kts 81°
2026-04-26 17:20 51.95008 4.42285 219 ft 16 kts 57°
2026-04-26 17:20 51.95172 4.42732 145 ft 39 kts 61°
2026-04-26 17:20 51.95297 4.43098 87 ft 37 kts 51°
2026-04-26 17:21 51.95440 4.43426 56 ft 22 kts 75°
2026-04-26 17:21 51.95447 4.43493 42 ft 16 kts 135°